Impacts METAR Board
IDs:

KMCO - Orlando Intl, FL, US

Updated at: 0500 UTC 10 Dec 2018
Potential Impact None Slight Moderate High
Time 09/17Z 09/18Z 09/19Z 09/20Z 09/21Z 09/22Z 09/23Z 10/00Z 10/01Z 10/02Z 10/03Z 10/04Z 10/05Z
Temp68 67 70 71 72 71 69 67 65 65 64 63 62
Dewpt66 66 68 68 67 63 64 62 61 60 59 58 57
Altim29.95 29.91 29.89 29.87 29.87 29.89 29.90 29.91 29.93 29.93 29.94 29.95 29.95
VIS1.25 3 10 10 10 10 10 10 10 10 10 10 10
CIG30 50 38 15 110 33 40 36 -- 33 -- -- --
CoverOVCOVCOVCBKNBKNBKNBKNBKNFEWBKNFEWFEWFEW
FltCatIFRMVFRVFRMVFRVFRVFRVFRVFRVFRVFRVFRVFRVFR
WX+RA BRRA BR-------RA--------------
WDir230220210220220250250270260260250250260
WSpd9 7 14 14 11 15 9 7 8 7 8 9 6
WGst-- -- 24 -- -- 23 -- -- -- -- -- -- --
Raw hourly METARs
KMCO 091701Z 23009KT 1 1/4SM R35L/3500VP6000FT +RA BR BKN030CB BKN045 OVC100 20/19 A2995 RMK AO2 WSHFT 1640 TSE00 CB OHD AND NE-SW MOV NE P0005 T02000189 $
KMCO 091753Z 22007KT 3SM RA BR SCT036 BKN050 OVC095 19/19 A2991 RMK AO2 WSHFT 1640 TSE00 SLP126 CB DSNT E MOV NE P0062 60117 T01940189 10211 20189 58023 $
KMCO 091853Z 21014G24KT 10SM SCT015 BKN038 OVC070 21/20 A2989 RMK AO2 RAE23 SLP119 P0002 T02110200 $
KMCO 091953Z 22014KT 10SM BKN015 BKN070 BKN120 22/20 A2987 RMK AO2 SLP114 T02170200 $
KMCO 092053Z 22011KT 10SM FEW015 FEW020 BKN110 BKN160 22/19 A2987 RMK AO2 SLP114 60002 T02220194 56012 $
KMCO 092153Z 25015G23KT 10SM -RA FEW023 BKN033 BKN160 BKN250 22/17 A2989 RMK AO2 RAB43 SLP118 P0000 T02170172 $
KMCO 092253Z 25009KT 10SM SCT026 BKN040 21/18 A2990 RMK AO2 RAE2154 SLP122 P0000 T02060178 $
KMCO 092353Z 27007KT 10SM FEW020 BKN036 19/17 A2991 RMK AO2 SLP127 60002 T01940167 10228 20194 53013 $
KMCO 100053Z 26008KT 10SM FEW020 FEW050 18/16 A2993 RMK AO2 SLP133 T01830161 $
KMCO 100153Z 26007KT 10SM FEW022 BKN033 BKN048 18/16 A2993 RMK AO2 SLP135 T01830156 $
KMCO 100253Z 25008KT 10SM FEW022 FEW040 18/15 A2994 RMK AO2 SLP138 T01780150 51011 $
KMCO 100353Z 25009KT 10SM FEW045 17/14 A2995 RMK AO2 SLP140 T01720144 $
KMCO 100453Z 26006KT 10SM FEW021 FEW045 17/14 A2995 RMK AO2 SLP140 T01670139 402280167 $



Page loaded:  05:07 UTC  |   09:07 PM Pacific  |   10:07 PM Mountain  |   11:07 PM Central  |   12:07 AM Eastern

 

ADVISORIES

FORECASTS

FORECASTS

OBSERVATIONS

USER TOOLS

ABOUT US